Hoegh Transporter — LAKO7 — position and weather

sailwx.info

Track history (hours):
 
Tides and Currents Weather Stations Pressure Air Temp Water Temp Dewpoint Dewpoint Depression Visibility Wind Speed Wind Dir Waves Ship Positions

Hoegh Transporter

Last reported at 2014-Sep-23 21:09 UTC. Time now 2014-Sep-23 22:30 UTC.
Position N 32°13' E 030°11'.

Length 199 m; draft 9.2 m.

Type: Cargo ship. MMSI: 257712000.

Date/timePositionNaut miles runAvg speedWind from/ knotsBaromVisibWave heightAir tempDewpointWater temp
2014-Sep-23 21:09N 32°13' E 030°11'1014.9
2014-Sep-23 20:30N 32°17' E 029°60'1414.8
2014-Sep-23 19:32N 32°21' E 029°44'1914.5
2014-Sep-23 18:12N 32°27' E 029°22'914.1
2014-Sep-23 17:33N 32°30' E 029°11'8614.4
2014-Sep-23 11:33N 32°55' E 027°34'29814.6
2014-Sep-22 15:05N 34°26' E 021°52'814.3
2014-Sep-22 14:33N 34°29' E 021°44'1514.2
2014-Sep-22 13:28N 34°34' E 021°26'1814.3
2014-Sep-22 12:12N 34°39' E 021°05'27914.8
2014-Sep-21 17:18N 36°04' E 015°38'1114.9
2014-Sep-21 16:34N 36°08' E 015°26'1515.0
2014-Sep-21 15:34N 36°12' E 015°08'1514.9
2014-Sep-21 14:34N 36°16' E 014°50'1514.8
2014-Sep-21 13:34N 36°20' E 014°32'1515.0
2014-Sep-21 12:34N 36°25' E 014°15'1515.4
2014-Sep-21 11:34N 36°30' E 013°57'1515.3
2014-Sep-21 10:33N 36°35' E 013°39'1515.1
2014-Sep-21 09:34N 36°39' E 013°21'1514.7
2014-Sep-21 08:34N 36°44' E 013°03'1514.6
2014-Sep-21 07:34N 36°48' E 012°46'1514.8
2014-Sep-21 06:34N 36°53' E 012°28'1515.2
2014-Sep-21 05:34N 36°57' E 012°10'1515.1
2014-Sep-21 04:34N 37°04' E 011°53'1514.9
2014-Sep-21 03:34N 37°11' E 011°37'1515.2
2014-Sep-21 02:34N 37°18' E 011°20'1615.6
2014-Sep-21 01:34N 37°26' E 011°03'1615.7
2014-Sep-21 00:32N 37°34' E 010°46'1515.7
2014-Sep-20 23:33N 37°41' E 010°28'1615.8
2014-Sep-20 22:33N 37°49' E 010°11'1515.5
2014-Sep-20 21:33N 37°56' E 009°54'1615.5
2014-Sep-20 20:33N 38°04' E 009°37'1515.3
2014-Sep-20 19:33N 38°11' E 009°20'1514.9
2014-Sep-20 18:33N 38°19' E 009°03'1514.8
2014-Sep-20 17:33N 38°26' E 008°47'1514.7
2014-Sep-20 16:33N 38°33' E 008°30'1514.7
2014-Sep-20 15:32N 38°40' E 008°14'1815.9
2014-Sep-20 14:25N 38°49' E 007°53'1719.2
2014-Sep-20 13:33N 38°57' E 007°35'4117.0
2014-Sep-20 11:08N 39°17' E 006°49'1114.8
2014-Sep-20 10:22N 39°23' E 006°36'1814.6
2014-Sep-20 09:07N 39°32' E 006°15'8615.1
2014-Sep-20 03:25N 40°14' E 004°37'5915.2
2014-Sep-19 23:33N 40°43' E 003°30'1515.3
2014-Sep-19 22:33N 40°50' E 003°12'1515.3
2014-Sep-19 21:33N 40°58' E 002°55'1515.3
2014-Sep-19 20:33N 41°05' E 002°37'1515.1
2014-Sep-19 19:33N 41°13' E 002°20'11 3.6
2014-Sep-19 16:27N 41°20' E 002°09'0 0.0
2014-Sep-19 13:15N 41°20' E 002°09'91 6.1
2014-Sep-18 22:23N 39°58' E 001°19'1416.6
2014-Sep-18 21:33N 39°46' E 001°10'6917.0
2014-Sep-18 17:31N 38°45' E 000°30'1616.8
2014-Sep-18 16:33N 38°31' E 000°18'1917.2
2014-Sep-18 15:28N 38°15' E 000°05'1617.3
2014-Sep-18 14:32N 38°02' W 000°06'1717.2
2014-Sep-18 13:31N 37°47' W 000°18'1717.2
2014-Sep-18 12:33N 37°34' W 000°31'1717.3
2014-Sep-18 11:33N 37°22' W 000°46'1817.4
2014-Sep-18 10:30N 37°09' W 001°03'22318.7
2014-Sep-17 22:33N 35°57' W 005°26'22916.2
2014-Sep-17 08:22N 37°33' W 009°46'1316.2
2014-Sep-17 07:33N 37°46' W 009°50'1716.4
2014-Sep-17 06:30N 38°03' W 009°54'41713.9
2014-Sep-16 00:33N 44°58' W 008°52'1815.4
2014-Sep-15 23:22N 45°14' W 008°40'44815.0
2014-Sep-14 17:29N 50°23' W 000°37'1617.4
2014-Sep-14 16:34N 50°29' W 000°14'1916.7
2014-Sep-14 15:23N 50°34' E 000°16'1315.6
2014-Sep-14 14:33N 50°37' E 000°35'1515.0
2014-Sep-14 13:33N 50°46' E 000°55'2015.5
2014-Sep-14 12:16N 50°57' E 001°21'1318.2
2014-Sep-14 11:34N 51°06' E 001°35'1818.4
2014-Sep-14 10:34N 51°22' E 001°52'1716.8
2014-Sep-14 09:34N 51°35' E 002°07'1615.8
2014-Sep-14 08:33N 51°46' E 002°27'10514.8
2014-Sep-14 01:27N 53°06' E 004°18'5614.4
2014-Sep-13 21:33N 53°40' E 005°32'  
Track history (hours):
 
Tides and Currents Weather Stations Pressure Air Temp Water Temp Dewpoint Dewpoint Depression Visibility Wind Speed Wind Dir Waves Ship Positions

Hoegh Transporter

Last reported at 2014-Sep-23 21:09 UTC. Time now 2014-Sep-23 22:30 UTC.
Position N 32°13' E 030°11'.

Length 199 m; draft 9.2 m.

Type: Cargo ship. MMSI: 257712000.

Date/timePositionNaut miles runAvg speedWind from/ knotsBaromVisibWave heightAir tempDewpointWater temp
2014-Sep-23 21:09N 32°13' E 030°11'1014.9
2014-Sep-23 20:30N 32°17' E 029°60'1414.8
2014-Sep-23 19:32N 32°21' E 029°44'1914.5
2014-Sep-23 18:12N 32°27' E 029°22'914.1
2014-Sep-23 17:33N 32°30' E 029°11'8614.4
2014-Sep-23 11:33N 32°55' E 027°34'29814.6
2014-Sep-22 15:05N 34°26' E 021°52'814.3
2014-Sep-22 14:33N 34°29' E 021°44'1514.2
2014-Sep-22 13:28N 34°34' E 021°26'1814.3
2014-Sep-22 12:12N 34°39' E 021°05'27914.8
2014-Sep-21 17:18N 36°04' E 015°38'1114.9
2014-Sep-21 16:34N 36°08' E 015°26'1515.0
2014-Sep-21 15:34N 36°12' E 015°08'1514.9
2014-Sep-21 14:34N 36°16' E 014°50'1514.8
2014-Sep-21 13:34N 36°20' E 014°32'1515.0
2014-Sep-21 12:34N 36°25' E 014°15'1515.4
2014-Sep-21 11:34N 36°30' E 013°57'1515.3
2014-Sep-21 10:33N 36°35' E 013°39'1515.1
2014-Sep-21 09:34N 36°39' E 013°21'1514.7
2014-Sep-21 08:34N 36°44' E 013°03'1514.6
2014-Sep-21 07:34N 36°48' E 012°46'1514.8
2014-Sep-21 06:34N 36°53' E 012°28'1515.2
2014-Sep-21 05:34N 36°57' E 012°10'1515.1
2014-Sep-21 04:34N 37°04' E 011°53'1514.9
2014-Sep-21 03:34N 37°11' E 011°37'1515.2
2014-Sep-21 02:34N 37°18' E 011°20'1615.6
2014-Sep-21 01:34N 37°26' E 011°03'1615.7
2014-Sep-21 00:32N 37°34' E 010°46'1515.7
2014-Sep-20 23:33N 37°41' E 010°28'1615.8
2014-Sep-20 22:33N 37°49' E 010°11'1515.5
2014-Sep-20 21:33N 37°56' E 009°54'1615.5
2014-Sep-20 20:33N 38°04' E 009°37'1515.3
2014-Sep-20 19:33N 38°11' E 009°20'1514.9
2014-Sep-20 18:33N 38°19' E 009°03'1514.8
2014-Sep-20 17:33N 38°26' E 008°47'1514.7
2014-Sep-20 16:33N 38°33' E 008°30'1514.7
2014-Sep-20 15:32N 38°40' E 008°14'1815.9
2014-Sep-20 14:25N 38°49' E 007°53'1719.2
2014-Sep-20 13:33N 38°57' E 007°35'4117.0
2014-Sep-20 11:08N 39°17' E 006°49'1114.8
2014-Sep-20 10:22N 39°23' E 006°36'1814.6
2014-Sep-20 09:07N 39°32' E 006°15'8615.1
2014-Sep-20 03:25N 40°14' E 004°37'5915.2
2014-Sep-19 23:33N 40°43' E 003°30'1515.3
2014-Sep-19 22:33N 40°50' E 003°12'1515.3
2014-Sep-19 21:33N 40°58' E 002°55'1515.3
2014-Sep-19 20:33N 41°05' E 002°37'1515.1
2014-Sep-19 19:33N 41°13' E 002°20'11 3.6
2014-Sep-19 16:27N 41°20' E 002°09'0 0.0
2014-Sep-19 13:15N 41°20' E 002°09'91 6.1
2014-Sep-18 22:23N 39°58' E 001°19'1416.6
2014-Sep-18 21:33N 39°46' E 001°10'6917.0
2014-Sep-18 17:31N 38°45' E 000°30'1616.8
2014-Sep-18 16:33N 38°31' E 000°18'1917.2
2014-Sep-18 15:28N 38°15' E 000°05'1617.3
2014-Sep-18 14:32N 38°02' W 000°06'1717.2
2014-Sep-18 13:31N 37°47' W 000°18'1717.2
2014-Sep-18 12:33N 37°34' W 000°31'1717.3
2014-Sep-18 11:33N 37°22' W 000°46'1817.4
2014-Sep-18 10:30N 37°09' W 001°03'22318.7
2014-Sep-17 22:33N 35°57' W 005°26'22916.2
2014-Sep-17 08:22N 37°33' W 009°46'1316.2
2014-Sep-17 07:33N 37°46' W 009°50'1716.4
2014-Sep-17 06:30N 38°03' W 009°54'41713.9
2014-Sep-16 00:33N 44°58' W 008°52'1815.4
2014-Sep-15 23:22N 45°14' W 008°40'44815.0
2014-Sep-14 17:29N 50°23' W 000°37'1617.4
2014-Sep-14 16:34N 50°29' W 000°14'1916.7
2014-Sep-14 15:23N 50°34' E 000°16'1315.6
2014-Sep-14 14:33N 50°37' E 000°35'1515.0
2014-Sep-14 13:33N 50°46' E 000°55'2015.5
2014-Sep-14 12:16N 50°57' E 001°21'1318.2
2014-Sep-14 11:34N 51°06' E 001°35'1818.4
2014-Sep-14 10:34N 51°22' E 001°52'1716.8
2014-Sep-14 09:34N 51°35' E 002°07'1615.8
2014-Sep-14 08:33N 51°46' E 002°27'10514.8
2014-Sep-14 01:27N 53°06' E 004°18'5614.4
2014-Sep-13 21:33N 53°40' E 005°32'  

Dump ship's entire track history